createdAt,value
2022-12-13T00:01:55.880Z,4.82
2022-12-13T00:04:25.213Z,9.20
2022-12-13T00:06:58.699Z,7.55
2022-12-13T00:09:27.648Z,9.73
2022-12-13T00:11:55.936Z,7.32
2022-12-13T00:14:25.451Z,7.65
2022-12-13T00:16:53.911Z,6.72
2022-12-13T00:19:22.645Z,5.10
2022-12-13T00:21:53.575Z,8.63
2022-12-13T00:24:22.475Z,5.72
2022-12-13T00:26:55.872Z,6.55
2022-12-13T00:29:24.877Z,5.82
2022-12-13T00:32:01.393Z,5.60
2022-12-13T00:34:30.727Z,5.78
2022-12-13T00:36:59.660Z,6.65
2022-12-13T00:39:29.265Z,8.38
2022-12-13T00:41:57.944Z,8.68
2022-12-13T00:44:29.970Z,6.20
2022-12-13T00:46:58.292Z,9.45
2022-12-13T00:49:27.829Z,8.15
2022-12-13T00:51:56.146Z,7.90
2022-12-13T00:54:24.889Z,5.80
2022-12-13T00:56:53.681Z,10.85
2022-12-13T00:59:23.839Z,7.45
2022-12-13T01:01:53.733Z,9.57
2022-12-13T01:04:22.857Z,12.48
2022-12-13T01:06:51.669Z,12.32
2022-12-13T01:09:23.253Z,14.38
2022-12-13T01:11:51.882Z,12.25
2022-12-13T01:14:20.751Z,9.73
2022-12-13T01:16:49.146Z,5.93
2022-12-13T01:19:19.491Z,10.00
2022-12-13T01:21:48.023Z,8.38
2022-12-13T01:24:20.864Z,6.90
2022-12-13T01:26:49.327Z,5.55
2022-12-13T01:29:20.724Z,8.70
2022-12-13T01:31:50.068Z,7.20
2022-12-13T01:34:21.311Z,8.70
2022-12-13T01:36:58.194Z,8.00
2022-12-13T01:39:28.007Z,6.15
2022-12-13T01:42:00.164Z,7.25
2022-12-13T01:44:59.557Z,8.07
2022-12-13T01:47:30.495Z,7.43
2022-12-13T01:50:04.554Z,8.75
2022-12-13T01:52:34.824Z,5.47
2022-12-13T01:55:06.895Z,9.93
2022-12-13T01:57:43.724Z,7.55
2022-12-13T02:00:16.090Z,3.50
2022-12-13T02:02:46.156Z,7.57
2022-12-13T02:05:26.847Z,5.37
2022-12-13T02:07:57.446Z,7.40
2022-12-13T02:10:27.962Z,2.75
2022-12-13T02:12:57.612Z,9.77
2022-12-13T02:15:39.148Z,5.28
2022-12-13T02:18:52.627Z,3.78
2022-12-13T02:22:24.434Z,5.13
2022-12-13T02:25:17.147Z,4.97
2022-12-13T02:28:05.072Z,4.93
2022-12-13T02:31:02.634Z,4.05
2022-12-13T02:34:05.175Z,5.00
2022-12-13T02:36:42.587Z,5.90
2022-12-13T02:39:30.224Z,2.30
2022-12-13T02:42:22.047Z,5.18
2022-12-13T02:45:05.566Z,4.90
2022-12-13T02:47:36.059Z,3.83
2022-12-13T02:50:07.714Z,5.20
2022-12-13T02:52:36.980Z,6.72
2022-12-13T02:55:14.301Z,4.10
2022-12-13T02:57:45.700Z,5.90
2022-12-13T03:00:19.066Z,5.75
2022-12-13T03:03:26.034Z,6.93
2022-12-13T03:06:34.027Z,7.43
2022-12-13T03:09:31.830Z,4.80
2022-12-13T03:12:31.201Z,7.03
2022-12-13T03:15:08.605Z,10.57
2022-12-13T03:17:43.669Z,13.05
2022-12-13T03:20:22.765Z,7.97
2022-12-13T03:22:54.795Z,13.18
2022-12-13T03:25:32.024Z,13.90
2022-12-13T03:28:02.668Z,9.90
2022-12-13T03:30:33.433Z,10.18
2022-12-13T03:33:02.588Z,12.60
2022-12-13T03:35:34.712Z,12.02
2022-12-13T03:38:21.844Z,13.55
2022-12-13T03:40:56.092Z,11.30
2022-12-13T03:43:25.139Z,11.95
2022-12-13T03:45:54.711Z,11.73
2022-12-13T03:48:24.096Z,14.75
2022-12-13T03:50:54.371Z,12.80
2022-12-13T03:53:33.674Z,12.95
2022-12-13T03:56:07.531Z,13.00
2022-12-13T03:58:37.944Z,12.32
2022-12-13T04:01:12.812Z,15.15
2022-12-13T04:03:46.831Z,12.65
2022-12-13T04:06:22.225Z,8.30
2022-12-13T04:08:52.853Z,9.50
2022-12-13T04:11:59.762Z,11.73
2022-12-13T04:14:28.646Z,8.48
2022-12-13T04:16:57.522Z,15.02
2022-12-13T04:19:26.397Z,13.27
2022-12-13T04:21:55.145Z,12.13
2022-12-13T04:24:30.917Z,12.80
2022-12-13T04:27:02.108Z,10.32
2022-12-13T04:29:33.819Z,8.90
2022-12-13T04:32:26.473Z,11.98
2022-12-13T04:35:01.257Z,12.77
2022-12-13T04:37:30.699Z,7.93
2022-12-13T04:40:00.420Z,12.60
2022-12-13T04:42:30.591Z,9.93
2022-12-13T04:44:59.316Z,11.88
2022-12-13T04:47:28.351Z,12.65
2022-12-13T04:49:57.221Z,9.70
2022-12-13T04:52:25.776Z,6.65
2022-12-13T04:54:56.289Z,12.07
2022-12-13T04:57:25.119Z,7.97
2022-12-13T04:59:53.796Z,8.32
2022-12-13T05:02:23.683Z,10.98
2022-12-13T05:07:26.294Z,11.85
2022-12-13T05:09:54.840Z,12.15
2022-12-13T05:12:23.932Z,10.20
2022-12-13T05:14:53.838Z,10.90
2022-12-13T05:17:23.542Z,11.77
2022-12-13T05:19:53.880Z,10.32
2022-12-13T05:22:22.317Z,11.63
2022-12-13T05:24:51.622Z,9.10
2022-12-13T05:27:24.508Z,10.40
2022-12-13T05:30:03.035Z,11.53
2022-12-13T05:32:43.122Z,11.77
2022-12-13T05:35:22.452Z,10.68
2022-12-13T05:37:58.931Z,8.95
2022-12-13T05:40:30.362Z,12.05
2022-12-13T05:43:01.520Z,7.72
2022-12-13T05:45:32.403Z,8.48
2022-12-13T05:48:02.241Z,6.57
2022-12-13T05:50:31.399Z,6.85
2022-12-13T05:53:01.338Z,9.45
2022-12-13T05:55:33.401Z,10.10
2022-12-13T05:58:02.680Z,9.10
2022-12-13T06:00:34.922Z,9.20
2022-12-13T06:03:31.937Z,11.55
2022-12-13T06:06:01.999Z,4.50
2022-12-13T06:08:31.585Z,11.80
2022-12-13T06:11:11.442Z,11.77
2022-12-13T06:13:43.071Z,10.80
2022-12-13T06:16:22.468Z,10.43
2022-12-13T06:19:17.109Z,11.55
2022-12-13T06:21:46.646Z,12.10
2022-12-13T06:24:16.937Z,8.40
2022-12-13T06:26:46.287Z,10.82
2022-12-13T06:29:23.257Z,8.48
2022-12-13T06:32:01.707Z,11.40
2022-12-13T06:34:34.163Z,8.75
2022-12-13T06:39:33.743Z,12.57
2022-12-13T06:42:08.041Z,13.32
2022-12-13T06:44:40.314Z,15.38
2022-12-13T06:47:12.731Z,5.28
2022-12-13T06:49:57.547Z,10.65
2022-12-13T06:52:34.781Z,12.15
2022-12-13T06:55:03.207Z,12.95
2022-12-13T06:57:36.187Z,14.40
2022-12-13T07:00:05.517Z,11.75
2022-12-13T07:02:34.959Z,13.35
2022-12-13T07:05:03.815Z,15.30
2022-12-13T07:07:32.710Z,12.88
2022-12-13T07:10:01.180Z,14.70
2022-12-13T07:12:29.993Z,10.13
2022-12-13T07:14:58.370Z,13.57
2022-12-13T07:17:32.320Z,13.95
2022-12-13T07:20:10.353Z,13.23
2022-12-13T07:22:46.695Z,16.58
2022-12-13T07:25:26.691Z,8.85
2022-12-13T07:28:03.468Z,7.22
2022-12-13T07:30:41.064Z,13.88
2022-12-13T07:33:11.570Z,15.38
2022-12-13T07:35:40.498Z,15.93
2022-12-13T07:38:11.837Z,13.02
2022-12-13T07:40:40.989Z,13.55
2022-12-13T07:43:10.314Z,15.77
2022-12-13T07:45:39.187Z,9.75
2022-12-13T07:48:09.125Z,14.32
2022-12-13T07:50:38.112Z,13.57
2022-12-13T07:53:08.555Z,6.57
2022-12-13T07:55:37.818Z,10.63
2022-12-13T07:58:09.869Z,13.45
2022-12-13T08:00:41.140Z,15.40
2022-12-13T08:03:24.492Z,7.97
2022-12-13T08:06:05.979Z,13.50
2022-12-13T08:08:35.198Z,13.98
2022-12-13T08:11:12.197Z,14.48
2022-12-13T08:13:42.425Z,11.30
2022-12-13T08:16:28.174Z,12.65
2022-12-13T08:19:02.697Z,9.00
2022-12-13T08:21:57.430Z,8.68
2022-12-13T08:24:30.143Z,10.68
2022-12-13T08:27:02.781Z,21.85
2022-12-13T08:29:35.832Z,22.73
2022-12-13T08:32:09.461Z,7.25
2022-12-13T08:34:41.720Z,36.90
2022-12-13T08:37:10.303Z,8.90
2022-12-13T08:39:40.123Z,10.32
2022-12-13T08:42:19.353Z,8.93
2022-12-13T08:44:50.540Z,11.25
2022-12-13T08:47:25.947Z,16.27
2022-12-13T08:50:01.365Z,8.77
2022-12-13T08:52:42.353Z,10.50
2022-12-13T08:55:20.029Z,8.73
2022-12-13T08:57:53.362Z,16.17
2022-12-13T09:00:22.230Z,14.80
2022-12-13T09:02:50.808Z,34.08
2022-12-13T09:05:32.473Z,38.65
2022-12-13T09:08:23.257Z,58.03
2022-12-13T09:11:10.559Z,47.88
2022-12-13T09:13:50.183Z,45.10
2022-12-13T09:16:24.546Z,31.73
2022-12-13T09:18:55.468Z,9.40
2022-12-13T09:21:31.061Z,22.10
2022-12-13T09:24:01.540Z,13.48
2022-12-13T09:26:38.146Z,5.72
2022-12-13T09:29:11.692Z,7.30
2022-12-13T09:31:41.237Z,8.55
2022-12-13T09:34:11.298Z,9.35
2022-12-13T09:36:40.113Z,8.73
2022-12-13T09:39:09.329Z,5.28
2022-12-13T09:41:45.365Z,4.78
2022-12-13T09:44:32.153Z,4.70
2022-12-13T09:47:13.165Z,7.68
2022-12-13T09:49:52.287Z,10.07
2022-12-13T09:52:25.924Z,8.10
2022-12-13T09:55:04.409Z,11.95
2022-12-13T09:57:37.089Z,17.98
2022-12-13T10:00:08.655Z,12.63
2022-12-13T10:02:44.939Z,14.95
2022-12-13T10:05:34.260Z,12.95
2022-12-13T10:08:11.708Z,12.57
2022-12-13T10:10:40.258Z,6.38
2022-12-13T10:13:43.271Z,5.45
2022-12-13T10:16:36.260Z,9.55
2022-12-13T10:19:39.201Z,6.10
2022-12-13T10:22:16.597Z,13.30
2022-12-13T10:24:56.156Z,6.38
2022-12-13T10:27:36.990Z,11.70
2022-12-13T10:30:13.197Z,15.18
2022-12-13T10:33:00.163Z,7.35
2022-12-13T10:35:37.285Z,6.28
2022-12-13T10:38:11.790Z,5.82
2022-12-13T10:40:46.895Z,7.38
2022-12-13T10:43:16.216Z,5.50
2022-12-13T10:46:02.541Z,8.98
2022-12-13T10:48:49.708Z,9.85
2022-12-13T10:51:22.262Z,8.57
2022-12-13T10:53:59.842Z,5.40
2022-12-13T10:56:58.596Z,8.98
2022-12-13T10:59:38.004Z,4.65
2022-12-13T11:02:26.659Z,8.05
2022-12-13T11:04:56.617Z,5.32
2022-12-13T11:07:31.324Z,5.13
2022-12-13T11:10:27.879Z,9.40
2022-12-13T11:13:05.298Z,4.10
2022-12-13T11:15:38.231Z,8.15
2022-12-13T11:18:22.741Z,6.72
2022-12-13T11:21:02.043Z,8.10
2022-12-13T11:23:45.728Z,5.75
2022-12-13T11:26:24.787Z,7.50
2022-12-13T11:29:49.288Z,7.68
2022-12-13T11:32:24.399Z,6.32
2022-12-13T11:35:06.697Z,3.95
2022-12-13T11:37:57.931Z,6.70
2022-12-13T11:40:32.346Z,8.32
2022-12-13T11:43:23.618Z,6.78
2022-12-13T11:45:59.467Z,4.32
2022-12-13T11:48:50.266Z,6.18
2022-12-13T11:51:41.900Z,7.25
2022-12-13T11:54:25.828Z,6.75
2022-12-13T11:57:00.795Z,7.32
2022-12-13T11:59:54.743Z,8.10
2022-12-13T12:02:42.347Z,6.18
2022-12-13T12:05:33.879Z,4.90
2022-12-13T12:08:32.158Z,6.73
2022-12-13T12:11:04.604Z,6.65
2022-12-13T12:13:50.936Z,5.38
2022-12-13T12:16:36.040Z,7.30
2022-12-13T12:19:16.073Z,5.32
2022-12-13T12:22:13.234Z,6.72
2022-12-13T12:28:10.191Z,6.57
2022-12-13T12:30:47.491Z,7.80
2022-12-13T12:33:42.433Z,3.45
2022-12-13T12:36:37.169Z,6.93
2022-12-13T12:39:37.277Z,5.28
2022-12-13T12:42:15.231Z,5.63
2022-12-13T12:44:49.908Z,7.20
2022-12-13T12:51:21.384Z,5.53
2022-12-13T12:54:00.006Z,7.07
2022-12-13T12:56:58.183Z,3.65
2022-12-13T12:59:54.431Z,8.35
2022-12-13T13:02:37.204Z,5.35
2022-12-13T13:05:23.006Z,6.85
2022-12-13T13:08:11.892Z,5.22
2022-12-13T13:10:50.190Z,8.15
2022-12-13T13:13:47.071Z,5.70
2022-12-13T13:16:54.295Z,7.75
2022-12-13T13:19:35.595Z,10.82
2022-12-13T13:22:50.100Z,8.85
2022-12-13T13:28:43.580Z,10.52
2022-12-13T13:31:17.210Z,7.60
2022-12-13T13:36:52.070Z,7.45
2022-12-13T13:40:30.835Z,9.02
2022-12-13T13:43:08.229Z,24.77
2022-12-13T13:56:15.473Z,5.07
2022-12-13T14:03:09.151Z,9.43
2022-12-13T14:06:40.193Z,6.30
2022-12-13T14:16:24.615Z,10.05
2022-12-13T14:23:33.544Z,12.35
2022-12-13T14:29:58.497Z,14.35
2022-12-13T14:32:33.579Z,10.38
2022-12-13T14:41:33.784Z,33.72
2022-12-13T14:44:34.703Z,14.75
2022-12-13T14:47:09.452Z,13.65
2022-12-13T14:49:50.960Z,14.25
2022-12-13T14:52:33.864Z,13.25
2022-12-13T14:55:06.822Z,13.23
2022-12-13T14:57:36.440Z,15.02
2022-12-13T15:00:26.116Z,13.73
2022-12-13T15:02:57.704Z,11.20
2022-12-13T15:08:10.990Z,17.83
2022-12-13T15:10:48.292Z,16.50
2022-12-13T15:13:29.058Z,15.57
2022-12-13T15:16:01.841Z,12.27
2022-12-13T15:18:41.003Z,24.85
2022-12-13T15:21:28.749Z,18.02
2022-12-13T15:24:04.173Z,20.55
2022-12-13T15:26:48.917Z,19.45
2022-12-13T15:29:21.290Z,20.23
2022-12-13T15:31:50.248Z,20.75
2022-12-13T15:34:29.114Z,21.25
2022-12-13T15:37:05.721Z,20.10
2022-12-13T15:39:40.992Z,22.52
2022-12-13T15:42:23.658Z,13.70
2022-12-13T15:44:56.824Z,20.10
2022-12-13T15:47:28.325Z,17.58
2022-12-13T15:50:03.659Z,18.50
2022-12-13T15:52:40.387Z,19.83
2022-12-13T15:55:11.338Z,20.92
2022-12-13T15:57:53.062Z,26.67
2022-12-13T16:00:36.951Z,22.38
2022-12-13T16:03:15.575Z,20.20
2022-12-13T16:05:55.082Z,13.00
2022-12-13T16:08:27.315Z,23.27
2022-12-13T16:11:00.667Z,22.30
2022-12-13T16:13:33.683Z,18.83
2022-12-13T16:16:27.321Z,19.90
2022-12-13T16:18:59.353Z,24.60
2022-12-13T16:21:28.940Z,24.17
2022-12-13T16:23:57.675Z,24.83
2022-12-13T16:26:28.924Z,24.33
2022-12-13T16:29:00.489Z,23.95
2022-12-13T16:31:36.097Z,24.27
2022-12-13T16:34:11.287Z,14.35
2022-12-13T16:41:35.859Z,18.77
2022-12-13T16:49:24.134Z,19.73
2022-12-13T16:52:15.273Z,16.75
2022-12-13T16:54:54.329Z,22.20
2022-12-13T16:57:49.654Z,32.78
2022-12-13T17:00:59.737Z,21.02
2022-12-13T17:04:12.829Z,36.08
2022-12-13T17:07:54.913Z,17.48
2022-12-13T17:13:18.948Z,24.25
2022-12-13T17:16:06.362Z,30.77
2022-12-13T17:18:59.926Z,25.67
2022-12-13T17:22:09.356Z,21.55
2022-12-13T17:28:56.373Z,17.95
2022-12-13T17:32:05.019Z,15.35
2022-12-13T17:37:28.378Z,25.77
2022-12-13T17:40:12.815Z,36.90
2022-12-13T17:42:43.144Z,29.83
2022-12-13T17:46:16.812Z,23.98
2022-12-13T17:48:27.499Z,21.67
2022-12-13T17:50:56.868Z,21.15
2022-12-13T17:53:28.748Z,17.77
2022-12-13T17:56:02.964Z,16.60
2022-12-13T17:58:33.675Z,20.25
2022-12-13T18:07:50.626Z,19.77
2022-12-13T18:10:27.795Z,21.75
2022-12-13T18:12:58.813Z,16.50
2022-12-13T18:15:30.858Z,20.15
2022-12-13T18:18:15.959Z,26.38
2022-12-13T18:21:39.949Z,20.42
2022-12-13T18:24:20.333Z,23.40
2022-12-13T18:26:57.194Z,17.88
2022-12-13T18:29:25.910Z,19.83
2022-12-13T18:31:57.880Z,21.38
2022-12-13T18:34:54.699Z,15.35
2022-12-13T18:37:56.636Z,15.77
2022-12-13T18:41:27.078Z,16.73
2022-12-13T18:44:02.268Z,17.38
2022-12-13T18:46:35.405Z,20.65
2022-12-13T18:49:07.402Z,18.45
2022-12-13T18:51:36.436Z,20.85
2022-12-13T18:54:05.451Z,20.55
2022-12-13T18:56:41.291Z,21.85
2022-12-13T18:59:14.289Z,21.02
2022-12-13T19:01:47.410Z,20.35
2022-12-13T19:04:55.352Z,23.52
2022-12-13T19:07:30.183Z,21.63
2022-12-13T19:10:04.838Z,29.40
2022-12-13T19:12:45.817Z,26.00
2022-12-13T19:15:29.557Z,26.13
2022-12-13T19:18:02.536Z,28.17
2022-12-13T19:21:02.792Z,24.25
2022-12-13T19:23:34.839Z,21.45
2022-12-13T19:26:26.367Z,25.10
2022-12-13T19:29:38.057Z,24.33
2022-12-13T19:34:40.258Z,29.70
2022-12-13T19:37:09.623Z,28.58
2022-12-13T19:39:39.619Z,39.78
2022-12-13T19:42:08.207Z,29.65
2022-12-13T19:44:37.346Z,29.98
2022-12-13T19:47:07.412Z,26.35
2022-12-13T19:49:48.291Z,23.80
2022-12-13T19:52:22.618Z,28.38
2022-12-13T19:54:56.011Z,26.40
2022-12-13T19:57:35.815Z,33.03
2022-12-13T20:00:19.534Z,23.75
2022-12-13T20:02:47.930Z,25.27
2022-12-13T20:05:17.590Z,20.38
2022-12-13T20:07:51.083Z,25.60
2022-12-13T20:10:20.960Z,24.55
2022-12-13T20:12:51.048Z,37.50
2022-12-13T20:15:22.013Z,32.17
2022-12-13T20:17:52.423Z,36.35
2022-12-13T20:20:46.968Z,26.75
2022-12-13T20:23:19.694Z,32.15
2022-12-13T20:26:00.878Z,23.50
2022-12-13T20:28:30.174Z,20.80
2022-12-13T20:31:13.752Z,23.10
2022-12-13T20:33:49.987Z,28.67
2022-12-13T20:36:25.308Z,27.65
2022-12-13T20:38:57.180Z,25.92
2022-12-13T20:41:29.271Z,29.48
2022-12-13T20:44:09.757Z,29.42
2022-12-13T20:46:44.449Z,27.70
2022-12-13T20:49:16.618Z,27.35
2022-12-13T20:51:45.484Z,25.98
2022-12-13T20:54:13.869Z,26.58
2022-12-13T20:56:42.733Z,28.80
2022-12-13T20:59:14.556Z,26.75
2022-12-13T21:01:45.012Z,26.73
2022-12-13T21:04:17.529Z,26.13
2022-12-13T21:06:46.412Z,31.60
2022-12-13T21:09:14.840Z,28.08
2022-12-13T21:11:50.924Z,26.08
2022-12-13T21:14:25.642Z,26.95
2022-12-13T21:16:56.367Z,25.70
2022-12-13T21:19:27.291Z,33.75
2022-12-13T21:21:56.561Z,27.95
2022-12-13T21:24:27.271Z,30.35
2022-12-13T21:26:56.940Z,32.37
2022-12-13T21:29:29.198Z,36.20
2022-12-13T21:31:58.816Z,37.72
2022-12-13T21:34:27.379Z,34.30
2022-12-13T21:36:56.304Z,35.83
2022-12-13T21:39:30.064Z,35.97
2022-12-13T21:42:01.080Z,32.53
2022-12-13T21:44:29.644Z,40.65
2022-12-13T21:47:14.037Z,35.33
2022-12-13T21:49:48.330Z,32.78
2022-12-13T21:52:18.741Z,37.95
2022-12-13T21:55:15.349Z,32.90
2022-12-13T21:58:05.986Z,37.42
2022-12-13T22:00:38.058Z,41.20
2022-12-13T22:03:06.736Z,31.65
2022-12-13T22:05:35.054Z,28.52
2022-12-13T22:08:03.624Z,35.08
2022-12-13T22:10:57.948Z,38.05
2022-12-13T22:13:37.401Z,32.42
2022-12-13T22:16:22.395Z,36.83
2022-12-13T22:18:57.965Z,40.25
2022-12-13T22:21:27.709Z,40.30
2022-12-13T22:23:57.056Z,35.80
2022-12-13T22:26:26.342Z,37.83
2022-12-13T22:28:57.751Z,32.85
2022-12-13T22:31:29.641Z,35.83
2022-12-13T22:33:59.020Z,35.28
2022-12-13T22:36:27.369Z,38.97
2022-12-13T22:38:56.156Z,37.10
2022-12-13T22:41:24.448Z,45.53
2022-12-13T22:43:55.579Z,42.20
2022-12-13T22:46:24.557Z,42.20
2022-12-13T22:48:54.878Z,41.35
2022-12-13T22:51:23.799Z,37.88
2022-12-13T22:53:52.361Z,37.83
2022-12-13T22:56:23.167Z,37.45
2022-12-13T22:58:57.529Z,41.17
2022-12-13T23:01:31.687Z,42.22
2022-12-13T23:04:01.067Z,42.38
2022-12-13T23:06:35.838Z,44.53
2022-12-13T23:09:08.334Z,40.17
2022-12-13T23:11:55.172Z,38.15
2022-12-13T23:14:33.737Z,37.10
2022-12-13T23:17:04.888Z,40.72
2022-12-13T23:19:51.048Z,34.47
2022-12-13T23:22:25.746Z,38.35
2022-12-13T23:24:54.569Z,39.38
2022-12-13T23:27:24.056Z,39.70
2022-12-13T23:29:52.770Z,39.15
2022-12-13T23:32:21.079Z,37.40
2022-12-13T23:34:49.739Z,46.53
2022-12-13T23:37:20.106Z,38.33
2022-12-13T23:39:50.245Z,44.45
2022-12-13T23:42:18.618Z,44.88
2022-12-13T23:44:47.563Z,54.92
2022-12-13T23:47:15.902Z,63.58
2022-12-13T23:49:44.802Z,59.63
2022-12-13T23:52:16.723Z,60.75
2022-12-13T23:54:45.533Z,62.63
2022-12-13T23:57:14.291Z,67.25
2022-12-13T23:59:42.918Z,55.70
